sensor_id;sensor_type;location;lat;lon;timestamp;temperature;humidity
73576;DHT22;61859;49.204;8.140;2022-12-07T00:01:11;4.30;93.90
73576;DHT22;61859;49.204;8.140;2022-12-07T00:03:38;4.10;94.40
73576;DHT22;61859;49.204;8.140;2022-12-07T00:06:05;4.10;94.80
73576;DHT22;61859;49.204;8.140;2022-12-07T00:08:31;3.70;95.00
73576;DHT22;61859;49.204;8.140;2022-12-07T00:11:08;3.50;96.10
73576;DHT22;61859;49.204;8.140;2022-12-07T00:13:34;3.40;95.90
73576;DHT22;61859;49.204;8.140;2022-12-07T00:16:10;3.40;95.70
73576;DHT22;61859;49.204;8.140;2022-12-07T00:18:36;3.40;95.90
73576;DHT22;61859;49.204;8.140;2022-12-07T00:21:17;3.40;96.30
73576;DHT22;61859;49.204;8.140;2022-12-07T00:23:44;3.10;96.90
73576;DHT22;61859;49.204;8.140;2022-12-07T00:26:13;2.90;97.20
73576;DHT22;61859;49.204;8.140;2022-12-07T00:28:39;2.90;98.30
73576;DHT22;61859;49.204;8.140;2022-12-07T00:31:12;3.10;98.30
73576;DHT22;61859;49.204;8.140;2022-12-07T00:33:38;3.00;98.30
73576;DHT22;61859;49.204;8.140;2022-12-07T00:36:07;3.10;98.30
73576;DHT22;61859;49.204;8.140;2022-12-07T00:38:34;3.00;98.20
73576;DHT22;61859;49.204;8.140;2022-12-07T00:41:03;3.20;98.50
73576;DHT22;61859;49.204;8.140;2022-12-07T00:43:29;3.10;98.70
73576;DHT22;61859;49.204;8.140;2022-12-07T00:45:55;3.30;98.30
73576;DHT22;61859;49.204;8.140;2022-12-07T00:48:21;3.40;98.30
73576;DHT22;61859;49.204;8.140;2022-12-07T00:50:48;3.30;98.30
73576;DHT22;61859;49.204;8.140;2022-12-07T00:53:13;3.40;98.40
73576;DHT22;61859;49.204;8.140;2022-12-07T00:55:39;3.50;98.30
73576;DHT22;61859;49.204;8.140;2022-12-07T00:58:05;3.50;98.10
73576;DHT22;61859;49.204;8.140;2022-12-07T01:00:30;3.50;97.50
73576;DHT22;61859;49.204;8.140;2022-12-07T01:02:56;3.60;97.20
73576;DHT22;61859;49.204;8.140;2022-12-07T01:05:22;3.50;97.10
73576;DHT22;61859;49.204;8.140;2022-12-07T01:07:47;3.60;96.90
73576;DHT22;61859;49.204;8.140;2022-12-07T01:10:14;3.80;97.00
73576;DHT22;61859;49.204;8.140;2022-12-07T01:12:40;3.70;96.80
73576;DHT22;61859;49.204;8.140;2022-12-07T01:15:07;3.70;96.70
73576;DHT22;61859;49.204;8.140;2022-12-07T01:17:33;3.80;96.70
73576;DHT22;61859;49.204;8.140;2022-12-07T01:19:59;3.90;96.70
73576;DHT22;61859;49.204;8.140;2022-12-07T01:22:25;3.70;96.60
73576;DHT22;61859;49.204;8.140;2022-12-07T01:24:51;3.60;96.50
73576;DHT22;61859;49.204;8.140;2022-12-07T01:27:17;3.90;96.40
73576;DHT22;61859;49.204;8.140;2022-12-07T01:29:42;3.90;96.30
73576;DHT22;61859;49.204;8.140;2022-12-07T01:32:08;4.00;95.90
73576;DHT22;61859;49.204;8.140;2022-12-07T01:34:33;3.80;96.00
73576;DHT22;61859;49.204;8.140;2022-12-07T01:36:59;3.80;95.70
73576;DHT22;61859;49.204;8.140;2022-12-07T01:39:24;3.70;95.40
73576;DHT22;61859;49.204;8.140;2022-12-07T01:41:50;3.80;95.00
73576;DHT22;61859;49.204;8.140;2022-12-07T01:44:29;4.00;95.40
73576;DHT22;61859;49.204;8.140;2022-12-07T01:47:00;3.90;95.60
73576;DHT22;61859;49.204;8.140;2022-12-07T01:49:44;4.00;95.30
73576;DHT22;61859;49.204;8.140;2022-12-07T01:54:41;4.10;95.00
73576;DHT22;61859;49.204;8.140;2022-12-07T01:57:08;4.10;95.00
73576;DHT22;61859;49.204;8.140;2022-12-07T01:59:34;4.10;94.60
73576;DHT22;61859;49.204;8.140;2022-12-07T02:02:02;3.90;94.70
73576;DHT22;61859;49.204;8.140;2022-12-07T02:04:29;3.90;94.70
73576;DHT22;61859;49.204;8.140;2022-12-07T02:06:55;3.90;94.90
73576;DHT22;61859;49.204;8.140;2022-12-07T02:09:23;3.90;94.60
73576;DHT22;61859;49.204;8.140;2022-12-07T02:11:49;4.00;94.30
73576;DHT22;61859;49.204;8.140;2022-12-07T02:14:14;4.00;94.70
73576;DHT22;61859;49.204;8.140;2022-12-07T02:20:05;4.10;94.70
73576;DHT22;61859;49.204;8.140;2022-12-07T02:22:48;4.10;94.80
73576;DHT22;61859;49.204;8.140;2022-12-07T02:28:26;3.90;95.10
73576;DHT22;61859;49.204;8.140;2022-12-07T02:30:55;4.00;95.10
73576;DHT22;61859;49.204;8.140;2022-12-07T02:33:36;4.00;95.20
73576;DHT22;61859;49.204;8.140;2022-12-07T02:38:49;4.00;95.30
73576;DHT22;61859;49.204;8.140;2022-12-07T02:41:31;3.90;95.50
73576;DHT22;61859;49.204;8.140;2022-12-07T02:44:01;3.90;95.40
73576;DHT22;61859;49.204;8.140;2022-12-07T02:46:31;3.90;95.20
73576;DHT22;61859;49.204;8.140;2022-12-07T02:48:58;3.80;95.20
73576;DHT22;61859;49.204;8.140;2022-12-07T02:51:24;4.00;95.10
73576;DHT22;61859;49.204;8.140;2022-12-07T02:53:50;3.60;94.00
73576;DHT22;61859;49.204;8.140;2022-12-07T03:02:30;3.80;93.80
73576;DHT22;61859;49.204;8.140;2022-12-07T03:07:39;3.90;93.80
73576;DHT22;61859;49.204;8.140;2022-12-07T03:15:47;4.00;93.90
73576;DHT22;61859;49.204;8.140;2022-12-07T03:18:18;3.80;94.30
73576;DHT22;61859;49.204;8.140;2022-12-07T03:20:46;3.70;94.20
73576;DHT22;61859;49.204;8.140;2022-12-07T03:23:15;3.80;94.40
73576;DHT22;61859;49.204;8.140;2022-12-07T03:25:45;3.80;94.40
73576;DHT22;61859;49.204;8.140;2022-12-07T03:28:14;3.80;94.50
73576;DHT22;61859;49.204;8.140;2022-12-07T03:36:18;3.80;95.70
73576;DHT22;61859;49.204;8.140;2022-12-07T03:38:53;3.40;95.50
73576;DHT22;61859;49.204;8.140;2022-12-07T03:41:27;3.60;95.60
73576;DHT22;61859;49.204;8.140;2022-12-07T03:43:55;3.40;95.40
73576;DHT22;61859;49.204;8.140;2022-12-07T03:46:37;3.80;94.40
73576;DHT22;61859;49.204;8.140;2022-12-07T03:49:26;3.70;93.80
73576;DHT22;61859;49.204;8.140;2022-12-07T03:52:06;3.80;94.20
73576;DHT22;61859;49.204;8.140;2022-12-07T03:54:43;3.70;94.70
73576;DHT22;61859;49.204;8.140;2022-12-07T03:57:10;3.70;94.90
73576;DHT22;61859;49.204;8.140;2022-12-07T03:59:37;3.60;95.20
73576;DHT22;61859;49.204;8.140;2022-12-07T04:02:05;3.70;95.30
73576;DHT22;61859;49.204;8.140;2022-12-07T04:04:31;3.60;95.50
73576;DHT22;61859;49.204;8.140;2022-12-07T04:06:57;3.70;95.80
73576;DHT22;61859;49.204;8.140;2022-12-07T04:09:23;3.60;94.70
73576;DHT22;61859;49.204;8.140;2022-12-07T04:11:48;3.50;93.90
73576;DHT22;61859;49.204;8.140;2022-12-07T04:14:14;3.70;93.60
73576;DHT22;61859;49.204;8.140;2022-12-07T04:16:49;3.60;93.30
73576;DHT22;61859;49.204;8.140;2022-12-07T04:19:16;3.60;91.80
73576;DHT22;61859;49.204;8.140;2022-12-07T04:21:42;3.70;91.20
73576;DHT22;61859;49.204;8.140;2022-12-07T04:24:09;3.70;90.60
73576;DHT22;61859;49.204;8.140;2022-12-07T04:26:34;4.00;90.60
73576;DHT22;61859;49.204;8.140;2022-12-07T04:29:00;4.10;90.60
73576;DHT22;61859;49.204;8.140;2022-12-07T04:31:25;3.70;90.40
73576;DHT22;61859;49.204;8.140;2022-12-07T04:33:51;3.90;90.70
73576;DHT22;61859;49.204;8.140;2022-12-07T04:36:16;4.10;90.20
73576;DHT22;61859;49.204;8.140;2022-12-07T04:38:42;4.00;90.70
73576;DHT22;61859;49.204;8.140;2022-12-07T04:41:09;4.00;91.00
73576;DHT22;61859;49.204;8.140;2022-12-07T04:43:35;3.90;91.10
73576;DHT22;61859;49.204;8.140;2022-12-07T04:46:01;3.90;90.90
73576;DHT22;61859;49.204;8.140;2022-12-07T04:48:27;3.70;90.60
73576;DHT22;61859;49.204;8.140;2022-12-07T04:50:52;3.90;90.50
73576;DHT22;61859;49.204;8.140;2022-12-07T04:53:18;3.90;89.90
73576;DHT22;61859;49.204;8.140;2022-12-07T04:55:45;4.00;89.60
73576;DHT22;61859;49.204;8.140;2022-12-07T04:58:11;4.00;89.90
73576;DHT22;61859;49.204;8.140;2022-12-07T05:00:36;3.90;89.60
73576;DHT22;61859;49.204;8.140;2022-12-07T05:03:02;4.00;89.50
73576;DHT22;61859;49.204;8.140;2022-12-07T05:05:28;3.90;89.40
73576;DHT22;61859;49.204;8.140;2022-12-07T05:07:53;4.00;89.10
73576;DHT22;61859;49.204;8.140;2022-12-07T05:10:19;4.00;89.60
73576;DHT22;61859;49.204;8.140;2022-12-07T05:12:44;4.20;89.20
73576;DHT22;61859;49.204;8.140;2022-12-07T05:15:12;3.90;89.60
73576;DHT22;61859;49.204;8.140;2022-12-07T05:17:37;4.20;89.40
73576;DHT22;61859;49.204;8.140;2022-12-07T05:20:03;4.00;89.50
73576;DHT22;61859;49.204;8.140;2022-12-07T05:22:29;4.00;89.50
73576;DHT22;61859;49.204;8.140;2022-12-07T05:24:55;4.00;89.40
73576;DHT22;61859;49.204;8.140;2022-12-07T05:27:21;4.00;89.60
73576;DHT22;61859;49.204;8.140;2022-12-07T05:29:46;4.20;89.30
73576;DHT22;61859;49.204;8.140;2022-12-07T05:32:12;4.20;89.90
73576;DHT22;61859;49.204;8.140;2022-12-07T05:34:38;4.00;90.30
73576;DHT22;61859;49.204;8.140;2022-12-07T05:37:04;4.10;90.20
73576;DHT22;61859;49.204;8.140;2022-12-07T05:39:29;4.30;90.20
73576;DHT22;61859;49.204;8.140;2022-12-07T05:41:55;4.00;90.30
73576;DHT22;61859;49.204;8.140;2022-12-07T05:44:40;3.80;90.20
73576;DHT22;61859;49.204;8.140;2022-12-07T05:47:06;4.00;90.30
73576;DHT22;61859;49.204;8.140;2022-12-07T05:49:32;3.90;90.90
73576;DHT22;61859;49.204;8.140;2022-12-07T05:51:57;4.00;91.10
73576;DHT22;61859;49.204;8.140;2022-12-07T05:54:23;4.00;91.20
73576;DHT22;61859;49.204;8.140;2022-12-07T05:56:49;4.00;91.60
73576;DHT22;61859;49.204;8.140;2022-12-07T05:59:14;4.10;91.30
73576;DHT22;61859;49.204;8.140;2022-12-07T06:01:57;4.00;91.60
73576;DHT22;61859;49.204;8.140;2022-12-07T06:04:24;4.10;91.70
73576;DHT22;61859;49.204;8.140;2022-12-07T06:06:50;4.00;91.90
73576;DHT22;61859;49.204;8.140;2022-12-07T06:09:16;4.00;91.80
73576;DHT22;61859;49.204;8.140;2022-12-07T06:11:43;4.00;92.00
73576;DHT22;61859;49.204;8.140;2022-12-07T06:14:27;3.80;92.00
73576;DHT22;61859;49.204;8.140;2022-12-07T06:16:53;4.00;92.40
73576;DHT22;61859;49.204;8.140;2022-12-07T06:19:19;4.00;92.90
73576;DHT22;61859;49.204;8.140;2022-12-07T06:21:44;4.00;93.50
73576;DHT22;61859;49.204;8.140;2022-12-07T06:24:11;3.90;93.20
73576;DHT22;61859;49.204;8.140;2022-12-07T06:26:38;4.00;93.50
73576;DHT22;61859;49.204;8.140;2022-12-07T06:29:04;3.80;93.50
73576;DHT22;61859;49.204;8.140;2022-12-07T06:31:30;3.80;93.70
73576;DHT22;61859;49.204;8.140;2022-12-07T06:34:03;4.10;93.70
73576;DHT22;61859;49.204;8.140;2022-12-07T06:36:30;3.90;94.20
73576;DHT22;61859;49.204;8.140;2022-12-07T06:38:55;4.10;94.40
73576;DHT22;61859;49.204;8.140;2022-12-07T06:41:22;4.10;94.20
73576;DHT22;61859;49.204;8.140;2022-12-07T06:43:47;4.10;94.20
73576;DHT22;61859;49.204;8.140;2022-12-07T06:46:13;4.00;94.30
73576;DHT22;61859;49.204;8.140;2022-12-07T06:48:40;4.10;94.30
73576;DHT22;61859;49.204;8.140;2022-12-07T06:51:05;4.10;94.60
73576;DHT22;61859;49.204;8.140;2022-12-07T06:53:31;3.90;94.50
73576;DHT22;61859;49.204;8.140;2022-12-07T06:55:57;3.80;94.70
73576;DHT22;61859;49.204;8.140;2022-12-07T06:58:22;4.00;94.60
73576;DHT22;61859;49.204;8.140;2022-12-07T07:00:48;4.00;94.60
73576;DHT22;61859;49.204;8.140;2022-12-07T07:03:15;4.00;94.70
73576;DHT22;61859;49.204;8.140;2022-12-07T07:05:41;4.10;94.80
73576;DHT22;61859;49.204;8.140;2022-12-07T07:08:07;3.80;94.40
73576;DHT22;61859;49.204;8.140;2022-12-07T07:10:33;3.80;94.80
73576;DHT22;61859;49.204;8.140;2022-12-07T07:12:58;4.00;94.80
73576;DHT22;61859;49.204;8.140;2022-12-07T07:15:24;3.90;95.00
73576;DHT22;61859;49.204;8.140;2022-12-07T07:17:50;4.00;95.20
73576;DHT22;61859;49.204;8.140;2022-12-07T07:20:15;4.10;95.20
73576;DHT22;61859;49.204;8.140;2022-12-07T07:22:41;3.90;95.20
73576;DHT22;61859;49.204;8.140;2022-12-07T07:25:07;4.10;95.20
73576;DHT22;61859;49.204;8.140;2022-12-07T07:27:32;4.00;95.30
73576;DHT22;61859;49.204;8.140;2022-12-07T07:29:58;3.90;95.20
73576;DHT22;61859;49.204;8.140;2022-12-07T07:32:23;4.10;95.20
73576;DHT22;61859;49.204;8.140;2022-12-07T07:34:49;4.10;95.10
73576;DHT22;61859;49.204;8.140;2022-12-07T07:37:15;4.10;95.10
73576;DHT22;61859;49.204;8.140;2022-12-07T07:39:40;4.10;95.10
73576;DHT22;61859;49.204;8.140;2022-12-07T07:42:06;4.10;95.20
73576;DHT22;61859;49.204;8.140;2022-12-07T07:44:33;4.10;94.60
73576;DHT22;61859;49.204;8.140;2022-12-07T07:46:59;4.10;94.60
73576;DHT22;61859;49.204;8.140;2022-12-07T07:49:25;4.20;94.60
73576;DHT22;61859;49.204;8.140;2022-12-07T07:51:50;4.10;94.70
73576;DHT22;61859;49.204;8.140;2022-12-07T07:54:16;4.10;94.50
73576;DHT22;61859;49.204;8.140;2022-12-07T07:56:41;4.10;94.40
73576;DHT22;61859;49.204;8.140;2022-12-07T07:59:07;4.20;94.10
73576;DHT22;61859;49.204;8.140;2022-12-07T08:01:33;4.20;94.40
73576;DHT22;61859;49.204;8.140;2022-12-07T08:03:59;4.30;94.20
73576;DHT22;61859;49.204;8.140;2022-12-07T08:06:24;4.20;93.90
73576;DHT22;61859;49.204;8.140;2022-12-07T08:08:50;4.40;93.90
73576;DHT22;61859;49.204;8.140;2022-12-07T08:11:15;4.40;93.80
73576;DHT22;61859;49.204;8.140;2022-12-07T08:13:41;4.20;93.60
73576;DHT22;61859;49.204;8.140;2022-12-07T08:16:09;4.50;93.20
73576;DHT22;61859;49.204;8.140;2022-12-07T08:18:39;4.40;93.40
73576;DHT22;61859;49.204;8.140;2022-12-07T08:21:06;4.50;93.50
73576;DHT22;61859;49.204;8.140;2022-12-07T08:23:32;4.40;93.00
73576;DHT22;61859;49.204;8.140;2022-12-07T08:26:04;4.50;93.10
73576;DHT22;61859;49.204;8.140;2022-12-07T08:28:30;4.50;92.80
73576;DHT22;61859;49.204;8.140;2022-12-07T08:31:03;4.50;92.60
73576;DHT22;61859;49.204;8.140;2022-12-07T08:33:29;4.70;92.50
73576;DHT22;61859;49.204;8.140;2022-12-07T08:36:01;4.80;92.30
73576;DHT22;61859;49.204;8.140;2022-12-07T08:38:27;4.90;91.90
73576;DHT22;61859;49.204;8.140;2022-12-07T08:40:57;5.20;91.20
73576;DHT22;61859;49.204;8.140;2022-12-07T08:43:23;5.20;90.90
73576;DHT22;61859;49.204;8.140;2022-12-07T08:45:55;5.10;90.80
73576;DHT22;61859;49.204;8.140;2022-12-07T08:48:24;5.20;90.80
73576;DHT22;61859;49.204;8.140;2022-12-07T08:50:51;5.20;90.50
73576;DHT22;61859;49.204;8.140;2022-12-07T08:53:17;5.10;90.60
73576;DHT22;61859;49.204;8.140;2022-12-07T08:55:44;5.00;91.10
73576;DHT22;61859;49.204;8.140;2022-12-07T08:58:11;5.10;90.80
73576;DHT22;61859;49.204;8.140;2022-12-07T09:00:37;5.20;90.70
73576;DHT22;61859;49.204;8.140;2022-12-07T09:03:02;5.00;91.10
73576;DHT22;61859;49.204;8.140;2022-12-07T09:05:28;5.00;91.30
73576;DHT22;61859;49.204;8.140;2022-12-07T09:07:57;5.00;90.90
73576;DHT22;61859;49.204;8.140;2022-12-07T09:10:25;5.20;91.20
73576;DHT22;61859;49.204;8.140;2022-12-07T09:12:51;5.10;90.70
73576;DHT22;61859;49.204;8.140;2022-12-07T09:15:17;5.30;90.80
73576;DHT22;61859;49.204;8.140;2022-12-07T09:17:42;5.60;90.40
73576;DHT22;61859;49.204;8.140;2022-12-07T09:20:08;5.60;89.60
73576;DHT22;61859;49.204;8.140;2022-12-07T09:22:34;5.70;89.00
73576;DHT22;61859;49.204;8.140;2022-12-07T09:25:00;5.60;88.90
73576;DHT22;61859;49.204;8.140;2022-12-07T09:27:26;5.90;89.00
73576;DHT22;61859;49.204;8.140;2022-12-07T09:29:52;5.70;88.60
73576;DHT22;61859;49.204;8.140;2022-12-07T09:32:17;5.70;88.80
73576;DHT22;61859;49.204;8.140;2022-12-07T09:34:43;5.70;89.20
73576;DHT22;61859;49.204;8.140;2022-12-07T09:37:09;5.70;88.70
73576;DHT22;61859;49.204;8.140;2022-12-07T09:39:38;5.70;88.80
73576;DHT22;61859;49.204;8.140;2022-12-07T09:42:05;5.70;88.60
73576;DHT22;61859;49.204;8.140;2022-12-07T09:44:31;5.70;88.70
73576;DHT22;61859;49.204;8.140;2022-12-07T09:46:57;5.80;89.30
73576;DHT22;61859;49.204;8.140;2022-12-07T09:49:25;5.80;88.80
73576;DHT22;61859;49.204;8.140;2022-12-07T09:54:26;5.80;89.20
73576;DHT22;61859;49.204;8.140;2022-12-07T09:56:53;5.80;88.50
73576;DHT22;61859;49.204;8.140;2022-12-07T09:59:18;5.90;89.00
73576;DHT22;61859;49.204;8.140;2022-12-07T10:01:48;6.00;88.90
73576;DHT22;61859;49.204;8.140;2022-12-07T10:04:18;6.10;88.30
73576;DHT22;61859;49.204;8.140;2022-12-07T10:06:44;6.10;88.40
73576;DHT22;61859;49.204;8.140;2022-12-07T10:09:15;6.00;88.10
73576;DHT22;61859;49.204;8.140;2022-12-07T10:12:03;6.00;88.10
73576;DHT22;61859;49.204;8.140;2022-12-07T10:14:31;6.00;89.00
73576;DHT22;61859;49.204;8.140;2022-12-07T10:16:57;6.20;87.90
73576;DHT22;61859;49.204;8.140;2022-12-07T10:19:29;6.20;87.70
73576;DHT22;61859;49.204;8.140;2022-12-07T10:22:09;6.40;88.10
73576;DHT22;61859;49.204;8.140;2022-12-07T10:24:36;6.70;87.00
73576;DHT22;61859;49.204;8.140;2022-12-07T10:27:05;6.60;86.70
73576;DHT22;61859;49.204;8.140;2022-12-07T10:29:33;6.70;86.70
73576;DHT22;61859;49.204;8.140;2022-12-07T10:34:33;6.60;86.50
73576;DHT22;61859;49.204;8.140;2022-12-07T10:39:54;6.50;87.30
73576;DHT22;61859;49.204;8.140;2022-12-07T10:42:21;6.60;86.90
73576;DHT22;61859;49.204;8.140;2022-12-07T10:44:49;6.70;86.10
73576;DHT22;61859;49.204;8.140;2022-12-07T10:47:32;6.70;86.30
73576;DHT22;61859;49.204;8.140;2022-12-07T10:50:41;6.70;86.40
73576;DHT22;61859;49.204;8.140;2022-12-07T10:53:21;6.90;85.90
73576;DHT22;61859;49.204;8.140;2022-12-07T10:56:21;6.90;85.40
73576;DHT22;61859;49.204;8.140;2022-12-07T11:04:17;7.50;83.30
73576;DHT22;61859;49.204;8.140;2022-12-07T11:10:07;8.20;80.10
73576;DHT22;61859;49.204;8.140;2022-12-07T11:13:15;8.00;81.20
73576;DHT22;61859;49.204;8.140;2022-12-07T11:16:19;8.10;81.40
73576;DHT22;61859;49.204;8.140;2022-12-07T11:21:39;8.70;78.70
73576;DHT22;61859;49.204;8.140;2022-12-07T11:26:54;8.10;79.50
73576;DHT22;61859;49.204;8.140;2022-12-07T11:29:39;7.90;80.60
73576;DHT22;61859;49.204;8.140;2022-12-07T11:32:32;7.90;81.00
73576;DHT22;61859;49.204;8.140;2022-12-07T11:37:36;8.00;81.70
73576;DHT22;61859;49.204;8.140;2022-12-07T11:40:33;8.00;81.50
73576;DHT22;61859;49.204;8.140;2022-12-07T11:45:33;7.70;81.50
73576;DHT22;61859;49.204;8.140;2022-12-07T11:48:21;7.40;82.30
73576;DHT22;61859;49.204;8.140;2022-12-07T11:50:51;7.20;83.00
73576;DHT22;61859;49.204;8.140;2022-12-07T11:53:28;7.20;83.10
73576;DHT22;61859;49.204;8.140;2022-12-07T11:56:05;6.90;83.80
73576;DHT22;61859;49.204;8.140;2022-12-07T12:06:24;7.00;83.00
73576;DHT22;61859;49.204;8.140;2022-12-07T12:09:06;6.90;83.90
73576;DHT22;61859;49.204;8.140;2022-12-07T12:12:00;7.00;83.50
73576;DHT22;61859;49.204;8.140;2022-12-07T12:17:15;7.20;83.40
73576;DHT22;61859;49.204;8.140;2022-12-07T12:23:16;7.10;83.60
73576;DHT22;61859;49.204;8.140;2022-12-07T12:25:48;6.80;83.80
73576;DHT22;61859;49.204;8.140;2022-12-07T12:28:31;6.90;84.40
73576;DHT22;61859;49.204;8.140;2022-12-07T12:33:31;6.80;84.10
73576;DHT22;61859;49.204;8.140;2022-12-07T12:44:01;6.60;84.70
73576;DHT22;61859;49.204;8.140;2022-12-07T12:49:14;6.50;85.10
73576;DHT22;61859;49.204;8.140;2022-12-07T12:51:42;6.50;85.10
73576;DHT22;61859;49.204;8.140;2022-12-07T12:54:15;6.40;85.50
73576;DHT22;61859;49.204;8.140;2022-12-07T12:59:38;6.50;85.80
73576;DHT22;61859;49.204;8.140;2022-12-07T13:02:23;6.50;86.00
73576;DHT22;61859;49.204;8.140;2022-12-07T13:18:38;6.70;85.50
73576;DHT22;61859;49.204;8.140;2022-12-07T13:26:35;6.70;85.50
73576;DHT22;61859;49.204;8.140;2022-12-07T13:29:19;6.80;84.70
73576;DHT22;61859;49.204;8.140;2022-12-07T13:31:49;6.70;84.50
73576;DHT22;61859;49.204;8.140;2022-12-07T13:34:38;6.70;83.20
73576;DHT22;61859;49.204;8.140;2022-12-07T13:39:56;6.50;81.90
73576;DHT22;61859;49.204;8.140;2022-12-07T13:42:34;6.30;82.60
73576;DHT22;61859;49.204;8.140;2022-12-07T13:45:21;6.40;82.70
73576;DHT22;61859;49.204;8.140;2022-12-07T13:48:13;6.30;82.60
73576;DHT22;61859;49.204;8.140;2022-12-07T13:50:40;6.20;83.30
73576;DHT22;61859;49.204;8.140;2022-12-07T13:53:12;6.10;83.00
73576;DHT22;61859;49.204;8.140;2022-12-07T13:55:45;6.20;83.00
73576;DHT22;61859;49.204;8.140;2022-12-07T13:58:11;6.30;83.30
73576;DHT22;61859;49.204;8.140;2022-12-07T14:00:37;6.30;82.30
73576;DHT22;61859;49.204;8.140;2022-12-07T14:05:38;6.10;82.60
73576;DHT22;61859;49.204;8.140;2022-12-07T14:08:21;6.00;83.40
73576;DHT22;61859;49.204;8.140;2022-12-07T14:13:44;6.00;83.60
73576;DHT22;61859;49.204;8.140;2022-12-07T14:16:32;5.90;83.30
73576;DHT22;61859;49.204;8.140;2022-12-07T14:18:59;6.00;83.90
73576;DHT22;61859;49.204;8.140;2022-12-07T14:21:27;5.90;83.90
73576;DHT22;61859;49.204;8.140;2022-12-07T14:24:09;5.90;84.10
73576;DHT22;61859;49.204;8.140;2022-12-07T14:26:35;5.80;83.40
73576;DHT22;61859;49.204;8.140;2022-12-07T14:29:21;5.80;84.30
73576;DHT22;61859;49.204;8.140;2022-12-07T14:31:46;5.70;84.40
73576;DHT22;61859;49.204;8.140;2022-12-07T14:34:12;5.70;84.70
73576;DHT22;61859;49.204;8.140;2022-12-07T14:36:38;5.70;84.00
73576;DHT22;61859;49.204;8.140;2022-12-07T14:39:04;5.70;83.80
73576;DHT22;61859;49.204;8.140;2022-12-07T14:41:29;5.60;83.60
73576;DHT22;61859;49.204;8.140;2022-12-07T14:44:13;5.60;83.20
73576;DHT22;61859;49.204;8.140;2022-12-07T14:46:39;5.50;84.00
73576;DHT22;61859;49.204;8.140;2022-12-07T14:49:04;5.40;84.30
73576;DHT22;61859;49.204;8.140;2022-12-07T14:51:30;5.50;84.90
73576;DHT22;61859;49.204;8.140;2022-12-07T14:53:56;5.40;85.00
73576;DHT22;61859;49.204;8.140;2022-12-07T14:56:22;5.30;85.60
73576;DHT22;61859;49.204;8.140;2022-12-07T14:58:47;5.40;85.60
73576;DHT22;61859;49.204;8.140;2022-12-07T15:01:14;5.30;86.10
73576;DHT22;61859;49.204;8.140;2022-12-07T15:03:39;5.10;86.20
73576;DHT22;61859;49.204;8.140;2022-12-07T15:06:06;5.10;86.40
73576;DHT22;61859;49.204;8.140;2022-12-07T15:08:31;5.10;86.90
73576;DHT22;61859;49.204;8.140;2022-12-07T15:10:57;4.90;87.20
73576;DHT22;61859;49.204;8.140;2022-12-07T15:13:22;4.90;87.60
73576;DHT22;61859;49.204;8.140;2022-12-07T15:16:10;4.90;87.90
73576;DHT22;61859;49.204;8.140;2022-12-07T15:18:38;4.70;88.60
73576;DHT22;61859;49.204;8.140;2022-12-07T15:21:03;4.70;88.90
73576;DHT22;61859;49.204;8.140;2022-12-07T15:23:29;4.60;89.30
73576;DHT22;61859;49.204;8.140;2022-12-07T15:25:54;4.70;89.50
73576;DHT22;61859;49.204;8.140;2022-12-07T15:28:20;4.80;89.50
73576;DHT22;61859;49.204;8.140;2022-12-07T15:30:46;4.80;89.70
73576;DHT22;61859;49.204;8.140;2022-12-07T15:33:12;4.70;89.70
73576;DHT22;61859;49.204;8.140;2022-12-07T15:35:43;4.80;89.60
73576;DHT22;61859;49.204;8.140;2022-12-07T15:38:09;4.70;89.80
73576;DHT22;61859;49.204;8.140;2022-12-07T15:40:34;4.80;89.90
73576;DHT22;61859;49.204;8.140;2022-12-07T15:43:01;4.80;90.10
73576;DHT22;61859;49.204;8.140;2022-12-07T15:45:26;4.70;90.30
73576;DHT22;61859;49.204;8.140;2022-12-07T15:47:52;4.80;90.30
73576;DHT22;61859;49.204;8.140;2022-12-07T15:50:17;4.80;90.70
73576;DHT22;61859;49.204;8.140;2022-12-07T15:52:43;4.60;90.70
73576;DHT22;61859;49.204;8.140;2022-12-07T15:55:10;4.70;90.90
73576;DHT22;61859;49.204;8.140;2022-12-07T15:57:36;4.70;90.90
73576;DHT22;61859;49.204;8.140;2022-12-07T16:00:04;4.60;91.10
73576;DHT22;61859;49.204;8.140;2022-12-07T16:02:30;4.50;90.90
73576;DHT22;61859;49.204;8.140;2022-12-07T16:04:56;4.70;91.20
73576;DHT22;61859;49.204;8.140;2022-12-07T16:07:22;4.60;91.20
73576;DHT22;61859;49.204;8.140;2022-12-07T16:09:48;4.60;91.20
73576;DHT22;61859;49.204;8.140;2022-12-07T16:12:15;4.70;91.20
73576;DHT22;61859;49.204;8.140;2022-12-07T16:14:40;4.70;91.30
73576;DHT22;61859;49.204;8.140;2022-12-07T16:17:08;4.60;91.60
73576;DHT22;61859;49.204;8.140;2022-12-07T16:19:34;4.50;91.30
73576;DHT22;61859;49.204;8.140;2022-12-07T16:22:00;4.60;91.40
73576;DHT22;61859;49.204;8.140;2022-12-07T16:24:26;4.50;91.50
73576;DHT22;61859;49.204;8.140;2022-12-07T16:26:52;4.50;91.60
73576;DHT22;61859;49.204;8.140;2022-12-07T16:29:20;4.40;91.60
73576;DHT22;61859;49.204;8.140;2022-12-07T16:31:46;4.40;91.80
73576;DHT22;61859;49.204;8.140;2022-12-07T16:34:12;4.40;91.40
73576;DHT22;61859;49.204;8.140;2022-12-07T16:36:38;4.40;91.60
73576;DHT22;61859;49.204;8.140;2022-12-07T16:39:04;4.30;91.80
73576;DHT22;61859;49.204;8.140;2022-12-07T16:41:30;4.30;92.00
73576;DHT22;61859;49.204;8.140;2022-12-07T16:43:55;4.30;92.00
73576;DHT22;61859;49.204;8.140;2022-12-07T16:46:21;4.00;92.30
73576;DHT22;61859;49.204;8.140;2022-12-07T16:48:47;4.00;92.40
73576;DHT22;61859;49.204;8.140;2022-12-07T16:51:13;4.00;92.90
73576;DHT22;61859;49.204;8.140;2022-12-07T16:53:41;4.00;93.10
73576;DHT22;61859;49.204;8.140;2022-12-07T16:56:11;3.80;93.70
73576;DHT22;61859;49.204;8.140;2022-12-07T16:58:37;3.50;94.10
73576;DHT22;61859;49.204;8.140;2022-12-07T17:01:22;3.70;94.70
73576;DHT22;61859;49.204;8.140;2022-12-07T17:03:48;3.50;95.10
73576;DHT22;61859;49.204;8.140;2022-12-07T17:06:19;3.20;95.20
73576;DHT22;61859;49.204;8.140;2022-12-07T17:08:45;3.40;95.30
73576;DHT22;61859;49.204;8.140;2022-12-07T17:11:14;3.10;95.60
73576;DHT22;61859;49.204;8.140;2022-12-07T17:13:40;3.10;96.10
73576;DHT22;61859;49.204;8.140;2022-12-07T17:16:25;3.00;96.60
73576;DHT22;61859;49.204;8.140;2022-12-07T17:18:51;2.90;96.60
73576;DHT22;61859;49.204;8.140;2022-12-07T17:21:16;3.00;96.90
73576;DHT22;61859;49.204;8.140;2022-12-07T17:23:42;2.90;96.50
73576;DHT22;61859;49.204;8.140;2022-12-07T17:26:13;2.80;96.80
73576;DHT22;61859;49.204;8.140;2022-12-07T17:28:39;2.80;97.60
73576;DHT22;61859;49.204;8.140;2022-12-07T17:31:06;2.50;97.50
73576;DHT22;61859;49.204;8.140;2022-12-07T17:33:33;2.40;97.70
73576;DHT22;61859;49.204;8.140;2022-12-07T17:35:59;2.70;98.60
73576;DHT22;61859;49.204;8.140;2022-12-07T17:38:25;2.80;98.80
73576;DHT22;61859;49.204;8.140;2022-12-07T17:40:50;2.80;98.80
73576;DHT22;61859;49.204;8.140;2022-12-07T17:43:16;2.60;99.00
73576;DHT22;61859;49.204;8.140;2022-12-07T17:45:42;2.60;99.10
73576;DHT22;61859;49.204;8.140;2022-12-07T17:48:07;2.70;98.90
73576;DHT22;61859;49.204;8.140;2022-12-07T17:50:33;2.90;98.70
73576;DHT22;61859;49.204;8.140;2022-12-07T17:53:17;2.90;98.50